Aviation Digital Data Service (ADDS)

Output produced by METARs form (0857 UTC 26 May 2019)
found at http://www.aviationweather.gov/metar/data/
 
TAF EGCC 260458Z 2606/2712 20007KT 9999 SCT020 
     TEMPO 2606/2612 6000 RA BKN014 
     PROB30 
     TEMPO 2606/2611 3000 +RA RADZ BKN004 
     BECMG 2608/2611 28015G25KT 
     BECMG 2618/2621 27009KT 
     PROB30 
     TEMPO 2704/2709 28015G25KT 6000 SHRA BKN014 
     TEMPO 2709/2712 6000 SHRA BKN014 
     PROB30 
     TEMPO 2710/2712 4000 +SHRA